Terminal Aerodrome Forecast
Issued by NWS El Paso, TX

Home | Current Version | Previous Version | Text Only | Print | Product List | Glossary On
Versions: 1 2 3 4 5 6 7 8 9 10 11 12 13 14
000
FTUS44 KEPZ 160500
TAFELP
TAF
KELP 160520Z 1606/1706 10004KT P6SM -SHRA BKN040 OVC080
     FM161300 10006KT P6SM VCSH BKN015 OVC040
     FM162000 07012KT P6SM VCTS SCT030CB BKN050 OVC100
     FM170200 07010KT P6SM -SHRA BKN020 BKN040=

USA.gov is the U.S. government's official web portal to all federal, state and local government web resources and services.